Terminal Aerodrome Forecast
Issued by NWS

Home | Current Version | Previous Version | Text Only | Print | Product List | Glossary On
Versions: 1 2 3 4 5 6 7 8 9 10 11 12 13 14 15 16 17 18 19 20 21 22
616
FTUS41 KCAR 022337
TAFPQI
TAF
KPQI 022337Z 0300/0324 VRB03KT P6SM SCT009 OVC020
      TEMPO 0300/0304 2SM -SHSN BR OVC008
     FM030400 04004KT 5SM -SHSN OVC015
     FM030800 02005KT P6SM VCSH OVC012
     FM031200 34006KT P6SM OVC018
     FM031800 34008KT P6SM OVC024=

USA.gov is the U.S. government's official web portal to all federal, state and local government web resources and services.